createdAt,value
2023-03-06T00:07:39.406Z,90.00
2023-03-06T00:17:45.729Z,86.00
2023-03-06T00:27:52.871Z,90.00
2023-03-06T00:37:59.568Z,84.00
2023-03-06T00:48:06.937Z,84.00
2023-03-06T00:58:13.932Z,90.00
2023-03-06T01:08:21.486Z,90.00
2023-03-06T01:18:28.792Z,86.00
2023-03-06T01:28:35.989Z,90.00
2023-03-06T01:38:42.783Z,88.00
2023-03-06T01:48:50.124Z,90.00
2023-03-06T01:58:56.676Z,92.00
2023-03-06T02:09:03.901Z,92.00
2023-03-06T02:19:10.717Z,90.00
2023-03-06T02:29:17.885Z,90.00
2023-03-06T02:39:25.072Z,90.00
2023-03-06T02:49:32.123Z,88.00
2023-03-06T02:59:39.159Z,90.00
2023-03-06T03:09:46.432Z,86.00
2023-03-06T03:19:53.246Z,90.00
2023-03-06T03:30:00.788Z,86.00
2023-03-06T03:40:08.306Z,90.00
2023-03-06T03:50:15.566Z,90.00
2023-03-06T04:00:22.252Z,86.00
2023-03-06T04:10:29.323Z,90.00
2023-03-06T04:20:36.378Z,88.00
2023-03-06T04:30:43.423Z,90.00
2023-03-06T04:40:50.967Z,90.00
2023-03-06T04:50:59.160Z,90.00
2023-03-06T05:01:06.966Z,92.00
2023-03-06T05:11:14.090Z,88.00
2023-03-06T05:21:20.959Z,86.00
2023-03-06T05:31:27.799Z,90.00
2023-03-06T05:41:34.403Z,88.00
2023-03-06T05:51:40.846Z,88.00
2023-03-06T06:01:48.109Z,88.00
2023-03-06T06:11:55.154Z,88.00
2023-03-06T06:22:02.262Z,88.00
2023-03-06T06:32:09.374Z,90.00
2023-03-06T06:42:29.318Z,84.00
2023-03-06T06:52:28.307Z,88.00
2023-03-06T07:02:35.597Z,88.00
2023-03-06T07:12:42.338Z,90.00
2023-03-06T07:22:51.639Z,86.00
2023-03-06T07:32:59.700Z,90.00
2023-03-06T07:43:18.811Z,88.00
2023-03-06T07:53:19.757Z,88.00
2023-03-06T08:03:26.789Z,92.00
2023-03-06T08:13:33.393Z,86.00
2023-03-06T08:23:40.828Z,74.00
2023-03-06T08:33:47.727Z,74.00
2023-03-06T08:43:54.529Z,68.00
2023-03-06T08:54:01.547Z,82.00
2023-03-06T09:04:08.590Z,70.00
2023-03-06T09:14:15.648Z,60.00
2023-03-06T09:24:23.301Z,92.00
2023-03-06T09:34:30.290Z,72.00
2023-03-06T09:44:37.348Z,72.00
2023-03-06T09:54:44.564Z,70.00
2023-03-06T10:04:51.503Z,56.00
2023-03-06T10:14:57.991Z,76.00
2023-03-06T10:25:05.269Z,68.00
2023-03-06T10:35:12.265Z,76.00
2023-03-06T10:45:19.786Z,74.00
2023-03-06T10:55:27.198Z,60.00
2023-03-06T11:05:34.053Z,82.00
2023-03-06T11:15:41.165Z,74.00
2023-03-06T11:25:47.760Z,78.00
2023-03-06T11:35:54.621Z,74.00
2023-03-06T11:46:01.619Z,76.00
2023-03-06T11:56:08.642Z,68.00
2023-03-06T12:06:16.051Z,72.00
2023-03-06T12:16:23.181Z,78.00
2023-03-06T12:26:30.422Z,84.00
2023-03-06T12:53:29.570Z,94.00
2023-03-06T13:03:30.433Z,90.00
2023-03-06T13:13:38.631Z,94.00
2023-03-06T13:23:45.990Z,92.00
2023-03-06T13:33:54.493Z,90.00
2023-03-06T13:44:02.493Z,88.00
2023-03-06T13:54:10.671Z,90.00
2023-03-06T14:04:19.298Z,88.00
2023-03-06T14:14:27.335Z,92.00
2023-03-06T14:24:35.578Z,92.00
2023-03-06T14:34:43.492Z,92.00
2023-03-06T14:44:51.558Z,88.00
2023-03-06T14:54:59.843Z,94.00
2023-03-06T15:05:07.987Z,90.00
2023-03-06T15:15:16.876Z,94.00
2023-03-06T15:25:24.892Z,94.00
2023-03-06T15:35:36.421Z,92.00
2023-03-06T15:45:46.519Z,92.00
2023-03-06T15:55:55.109Z,88.00
2023-03-06T16:06:04.402Z,90.00
2023-03-06T16:16:11.863Z,90.00
2023-03-06T16:26:20.269Z,86.00
2023-03-06T16:36:28.001Z,92.00
2023-03-06T16:46:36.171Z,90.00
2023-03-06T16:56:44.070Z,90.00
2023-03-06T17:06:52.217Z,88.00
2023-03-06T17:17:00.371Z,92.00
2023-03-06T17:27:08.281Z,92.00
2023-03-06T17:37:16.576Z,92.00
2023-03-06T17:47:24.847Z,92.00
2023-03-06T17:57:33.561Z,78.00
2023-03-06T18:07:41.568Z,92.00
2023-03-06T18:17:49.525Z,92.00
2023-03-06T18:27:57.705Z,92.00
2023-03-06T18:38:05.867Z,92.00
2023-03-06T18:48:14.065Z,90.00
2023-03-06T18:58:22.745Z,88.00
2023-03-06T19:08:30.715Z,94.00
2023-03-06T19:18:38.677Z,94.00
2023-03-06T19:28:46.650Z,92.00
2023-03-06T19:38:55.136Z,92.00
2023-03-06T19:49:03.012Z,88.00
2023-03-06T19:59:10.987Z,88.00
2023-03-06T20:09:19.263Z,94.00
2023-03-06T20:19:27.303Z,92.00
2023-03-06T20:29:35.303Z,90.00
2023-03-06T20:39:43.235Z,94.00
2023-03-06T20:49:51.661Z,94.00
2023-03-06T21:00:00.561Z,92.00
2023-03-06T21:10:08.587Z,94.00
2023-03-06T21:20:16.718Z,94.00
2023-03-06T21:30:24.356Z,94.00
2023-03-06T21:40:32.366Z,92.00
2023-03-06T21:50:40.628Z,92.00
2023-03-06T22:00:48.771Z,94.00
2023-03-06T22:10:56.731Z,94.00
2023-03-06T22:21:05.141Z,92.00
2023-03-06T22:31:12.462Z,92.00
2023-03-06T22:41:21.032Z,90.00
2023-03-06T22:51:29.088Z,90.00
2023-03-06T23:01:37.011Z,94.00
2023-03-06T23:11:44.920Z,92.00
2023-03-06T23:21:52.841Z,92.00
2023-03-06T23:32:01.098Z,90.00
2023-03-06T23:42:09.161Z,90.00
2023-03-06T23:52:17.353Z,92.00
